Time;durP1;ratioP1;P1;durP2;ratioP2;P2;SDS_P1;SDS_P2;PMS_P1;PMS_P2;Temp;Humidity;BMP_temperature;BMP_pressure;BME280_temperature;BME280_humidity;BME280_pressure;Samples;Min_cycle;Max_cycle;Signal;HPM_P1;HPM_P2
2021/11/17 02:25:59;;;;;;;18.45;12.30;;;10.90;99.90;;;;;;6195189;23;20019;-75
2021/11/17 02:28:37;;;;;;;18.50;12.15;;;11.00;99.90;;;;;;6213982;23;20008;-75
2021/11/17 02:31:29;;;;;;;15.82;12.85;;;11.00;99.90;;;;;;6186840;23;19997;-75
2021/11/17 02:34:07;;;;;;;20.98;12.45;;;11.00;99.90;;;;;;6162555;23;20019;-75
2021/11/17 02:36:50;;;;;;;16.90;11.60;;;11.00;99.90;;;;;;6213304;23;20104;-75
2021/11/17 02:39:21;;;;;;;18.15;12.27;;;11.00;99.90;;;;;;6213599;23;20001;-74
2021/11/17 02:41:59;;;;;;;19.33;12.50;;;11.00;99.90;;;;;;6213120;23;20001;-75
2021/11/17 02:44:37;;;;;;;17.50;12.18;;;11.00;99.90;;;;;;6213741;23;20008;-75
2021/11/17 02:47:22;;;;;;;18.88;12.05;;;11.00;99.90;;;;;;6187660;23;20007;-75
2021/11/17 02:50:07;;;;;;;20.50;12.20;;;10.90;99.90;;;;;;6187178;23;20336;-75
2021/11/17 02:52:36;;;;;;;20.38;12.65;;;11.00;99.90;;;;;;6213493;23;20005;-75
2021/11/17 02:55:41;;;;;;;17.88;12.57;;;11.00;99.90;;;;;;6186621;23;20005;-75
2021/11/17 02:58:31;;;;;;;17.42;12.10;;;11.10;99.90;;;;;;6164205;23;20034;-75
2021/11/17 03:01:11;;;;;;;20.27;13.27;;;11.10;99.90;;;;;;6213121;23;20372;-75
2021/11/17 03:03:40;;;;;;;18.05;12.23;;;11.10;99.90;;;;;;6187022;23;19996;-75
2021/11/17 03:06:11;;;;;;;15.48;12.65;;;11.20;99.90;;;;;;6186759;23;20394;-75
2021/11/17 03:09:01;;;;;;;17.98;13.05;;;11.10;99.90;;;;;;6213281;23;20005;-75
2021/11/17 03:11:48;;;;;;;18.63;12.77;;;11.20;99.90;;;;;;6212576;23;20005;-75
2021/11/17 03:14:36;;;;;;;18.27;12.55;;;11.10;99.90;;;;;;6213565;23;20008;-75
2021/11/17 03:17:05;;;;;;;17.55;12.82;;;11.10;99.90;;;;;;6163429;23;20584;-75
2021/11/17 03:20:08;;;;;;;22.92;12.75;;;11.10;99.90;;;;;;6213791;23;20000;-75
2021/11/17 03:22:36;;;;;;;;;;;11.00;99.90;;;;;;6213743;23;20004;-75
2021/11/17 03:25:26;;;;;;;19.02;12.27;;;10.90;99.90;;;;;;6212984;23;19904;-75
2021/11/17 03:28:18;;;;;;;16.40;12.65;;;10.90;99.90;;;;;;6213247;23;20004;-75
2021/11/17 03:31:15;;;;;;;18.95;13.38;;;10.80;99.90;;;;;;6163458;23;20031;-75
2021/11/17 03:33:56;;;;;;;19.10;13.60;;;10.80;99.90;;;;;;6213337;23;20001;-75
2021/11/17 03:36:33;;;;;;;17.85;13.05;;;10.70;99.90;;;;;;6212575;23;20005;-74
2021/11/17 03:39:27;;;;;;;18.73;13.65;;;10.70;99.90;;;;;;6213401;23;20000;-75
2021/11/17 03:42:08;;;;;;;19.48;13.43;;;10.70;99.90;;;;;;6212750;23;20084;-75
2021/11/17 03:44:55;;;;;;;21.02;13.77;;;10.60;99.90;;;;;;6186922;23;20001;-75
2021/11/17 03:47:45;;;;;;;23.70;13.32;;;10.60;99.90;;;;;;6213110;23;20004;-75
2021/11/17 03:50:39;;;;;;;17.42;12.95;;;10.60;99.90;;;;;;6186333;23;20332;-75
2021/11/17 03:53:21;;;;;;;18.45;12.77;;;10.60;99.90;;;;;;6165369;23;20008;-75
2021/11/17 03:56:12;;;;;;;20.75;14.05;;;10.60;99.90;;;;;;6212705;23;20092;-75
2021/11/17 03:59:05;;;;;;;18.20;13.90;;;10.60;99.90;;;;;;6186957;23;20004;-75
2021/11/17 04:01:46;;;;;;;18.67;13.77;;;10.50;99.90;;;;;;6212431;23;20375;-75
2021/11/17 04:04:37;;;;;;;22.13;13.63;;;10.50;99.90;;;;;;6186800;23;20511;-75
2021/11/17 04:07:06;;;;;;;16.30;13.27;;;10.50;99.90;;;;;;6186185;23;20008;-75
2021/11/17 04:09:39;;;;;;;19.48;13.90;;;10.50;99.90;;;;;;6186390;23;20012;-75
2021/11/17 04:12:11;;;;;;;19.75;14.48;;;10.40;99.90;;;;;;6161281;23;20013;-75
2021/11/17 04:14:56;;;;;;;20.90;13.55;;;10.50;99.90;;;;;;6213184;23;20004;-75
2021/11/17 04:17:45;;;;;;;25.17;14.60;;;10.50;99.90;;;;;;6212928;23;20091;-75
2021/11/17 04:20:30;;;;;;;21.60;14.65;;;10.40;99.90;;;;;;6186331;23;20005;-75
2021/11/17 04:23:07;;;;;;;19.85;13.93;;;10.40;99.90;;;;;;6212924;23;20006;-75
2021/11/17 04:25:54;;;;;;;19.17;13.73;;;10.40;99.90;;;;;;6212682;23;20031;-75
2021/11/17 04:28:25;;;;;;;20.80;14.13;;;10.30;99.90;;;;;;6186449;23;20011;-75
2021/11/17 04:31:09;;;;;;;25.13;15.70;;;10.30;99.90;;;;;;6212796;23;20001;-75
2021/11/17 04:33:45;;;;;;;20.33;13.75;;;10.30;99.90;;;;;;6186450;23;20004;-75
2021/11/17 04:36:32;;;;;;;19.40;13.75;;;10.30;99.90;;;;;;6161234;23;20008;-75
2021/11/17 04:39:24;;;;;;;18.48;14.52;;;10.30;99.90;;;;;;6213000;23;20005;-75
2021/11/17 04:42:12;;;;;;;19.38;14.57;;;10.40;99.90;;;;;;6173637;23;20028;-75
2021/11/17 04:44:59;;;;;;;21.20;13.98;;;10.40;99.90;;;;;;6164775;23;20039;-75
2021/11/17 04:47:27;;;;;;;20.73;13.90;;;10.50;99.90;;;;;;6186058;23;20020;-75
2021/11/17 04:50:06;;;;;;;23.13;14.75;;;10.50;99.90;;;;;;6213179;23;20331;-75
2021/11/17 04:52:37;;;;;;;22.52;14.55;;;10.50;99.90;;;;;;6187000;23;20004;-75
2021/11/17 04:55:25;;;;;;;21.67;14.43;;;10.60;99.90;;;;;;6212497;23;20012;-75
2021/11/17 04:58:05;;;;;;;21.60;14.32;;;10.60;99.90;;;;;;6186056;23;20043;-75
2021/11/17 05:00:53;;;;;;;20.65;13.43;;;10.70;99.90;;;;;;6186307;23;19997;-75
2021/11/17 05:04:03;;;;;;;20.17;14.18;;;10.70;99.90;;;;;;6186938;23;20012;-75
2021/11/17 05:07:07;;;;;;;17.35;13.43;;;10.70;99.90;;;;;;6214434;23;20031;-75
2021/11/17 05:09:58;;;;;;;21.45;14.60;;;10.70;99.90;;;;;;6213619;23;20020;-75
2021/11/17 05:12:37;;;;;;;20.75;13.88;;;10.60;99.90;;;;;;6214310;23;20001;-75
2021/11/17 05:15:13;;;;;;;23.27;14.27;;;10.60;99.90;;;;;;6214346;23;20028;-76
2021/11/17 05:18:00;;;;;;;21.42;14.15;;;10.60;99.90;;;;;;6188310;23;20040;-75
2021/11/17 05:20:52;;;;;;;19.25;14.70;;;10.60;99.90;;;;;;6187813;23;20087;-75
2021/11/17 05:23:53;;;;;;;21.10;13.97;;;10.60;99.90;;;;;;6171876;23;20054;-75
2021/11/17 05:26:18;;;;;;;23.38;14.40;;;10.70;99.90;;;;;;6213724;23;19997;-75
2021/11/17 05:29:03;;;;;;;23.58;13.85;;;10.70;99.90;;;;;;6214768;23;20009;-75
2021/11/17 05:32:07;;;;;;;22.35;15.00;;;10.70;99.90;;;;;;6213973;23;20004;-75
2021/11/17 05:34:44;;;;;;;25.15;14.65;;;10.80;99.90;;;;;;6214448;23;20084;-75
2021/11/17 05:37:13;;;;;;;19.50;14.45;;;10.80;99.90;;;;;;6188087;23;20013;-75
2021/11/17 05:39:47;;;;;;;22.85;14.00;;;10.80;99.90;;;;;;6214215;23;20008;-76
2021/11/17 05:42:31;;;;;;;19.30;14.48;;;10.80;99.90;;;;;;6187352;23;20012;-76
2021/11/17 05:45:30;;;;;;;23.17;13.77;;;10.70;99.90;;;;;;6162823;23;20012;-76
2021/11/17 05:48:13;;;;;;;23.17;14.95;;;10.80;99.90;;;;;;6170515;23;20009;-76
2021/11/17 05:50:54;;;;;;;23.60;14.07;;;10.80;99.90;;;;;;6214265;23;20079;-76
2021/11/17 05:53:25;;;;;;;19.30;12.98;;;10.80;99.90;;;;;;6213933;23;20001;-75
2021/11/17 05:55:54;;;;;;;17.45;13.35;;;10.80;99.90;;;;;;6213739;23;20088;-75
2021/11/17 05:58:22;;;;;;;20.35;14.68;;;10.80;99.90;;;;;;6187517;23;19996;-76
2021/11/17 06:01:13;;;;;;;16.98;13.95;;;10.80;99.90;;;;;;6187196;23;20086;-76
2021/11/17 06:03:41;;;;;;;21.05;13.70;;;10.80;99.90;;;;;;6213912;23;20428;-76
2021/11/17 06:06:07;;;;;;;26.10;13.10;;;10.80;99.90;;;;;;6213755;23;20051;-76
2021/11/17 06:08:32;;;;;;;18.52;12.60;;;10.80;99.90;;;;;;6187160;23;20012;-76
2021/11/17 06:11:02;;;;;;;20.83;13.30;;;10.90;99.90;;;;;;6213572;23;20432;-77
2021/11/17 06:13:29;;;;;;;17.25;12.75;;;10.90;99.90;;;;;;6214092;23;20479;-77
2021/11/17 06:15:56;;;;;;;19.55;13.25;;;11.00;99.90;;;;;;6223279;23;20023;-80
2021/11/17 06:18:26;;;;;;;15.98;13.50;;;11.00;99.90;;;;;;6214155;23;20011;-79
2021/11/17 06:20:52;;;;;;;19.20;13.48;;;11.00;99.90;;;;;;6187697;23;20007;-82
2021/11/17 06:23:33;;;;;;;16.08;12.90;;;11.10;99.90;;;;;;6213971;23;20028;-79
2021/11/17 06:25:59;;;;;;;17.45;13.32;;;11.10;99.90;;;;;;6213481;23;19997;-77
2021/11/17 06:28:27;;;;;;;19.35;13.15;;;11.10;99.90;;;;;;6213826;23;20070;-76
2021/11/17 06:30:56;;;;;;;19.80;12.50;;;11.20;99.90;;;;;;6213342;23;20008;-76
2021/11/17 06:33:22;;;;;;;19.15;12.57;;;11.20;99.90;;;;;;6213879;23;20001;-76
2021/11/17 06:35:48;;;;;;;18.13;12.77;;;11.20;99.90;;;;;;6213519;23;20013;-76
2021/11/17 06:38:14;;;;;;;17.05;12.50;;;11.30;99.90;;;;;;6213619;23;20026;-78
2021/11/17 06:40:42;;;;;;;17.67;12.80;;;11.30;99.90;;;;;;6186925;23;20060;-76
2021/11/17 06:43:09;;;;;;;15.82;12.48;;;11.40;99.90;;;;;;6186808;23;20005;-77
2021/11/17 06:45:45;;;;;;;14.70;11.70;;;11.40;99.90;;;;;;6213458;23;19997;-78
2021/11/17 06:48:13;;;;;;;18.52;12.75;;;11.50;99.90;;;;;;6186852;23;20063;-76
2021/11/17 06:50:42;;;;;;;18.60;12.55;;;11.60;99.90;;;;;;6213066;23;19997;-76
2021/11/17 06:53:09;;;;;;;21.80;13.10;;;11.70;99.90;;;;;;6213066;23;20674;-76
2021/11/17 06:55:35;;;;;;;14.57;12.00;;;11.80;99.90;;;;;;6213305;23;20000;-75
2021/11/17 06:58:00;;;;;;;18.05;12.23;;;11.80;99.90;;;;;;6186782;23;20110;-77
2021/11/17 07:00:29;;;;;;;17.92;12.57;;;11.80;99.90;;;;;;6213345;23;20580;-77
2021/11/17 07:02:55;;;;;;;17.58;13.13;;;11.80;99.90;;;;;;6213247;23;20004;-77
2021/11/17 07:05:22;;;;;;;19.48;11.90;;;11.80;99.90;;;;;;6186961;23;20005;-76
2021/11/17 07:07:49;;;;;;;16.30;12.23;;;11.90;99.90;;;;;;6186838;23;20000;-77
2021/11/17 07:10:17;;;;;;;14.38;11.73;;;11.90;99.90;;;;;;6181376;23;20452;-76
2021/11/17 07:12:44;;;;;;;16.80;12.40;;;12.00;99.90;;;;;;6181691;23;20027;-77
2021/11/17 07:15:12;;;;;;;16.33;12.82;;;11.90;99.90;;;;;;6181361;23;20027;-76
2021/11/17 07:17:38;;;;;;;16.08;11.93;;;11.90;99.90;;;;;;6183035;23;20035;-76
2021/11/17 07:20:06;;;;;;;16.70;12.38;;;11.90;99.90;;;;;;6183278;23;20009;-77
2021/11/17 07:22:32;;;;;;;17.95;12.15;;;11.90;99.90;;;;;;6183365;23;20005;-77
2021/11/17 07:24:58;;;;;;;15.15;11.80;;;12.00;99.90;;;;;;6183285;23;20075;-76
2021/11/17 07:27:23;;;;;;;18.02;11.82;;;12.00;99.90;;;;;;6182847;23;20339;-77
2021/11/17 07:29:55;;;;;;;17.38;12.48;;;12.10;99.90;;;;;;6183623;23;20005;-78
2021/11/17 07:32:24;;;;;;;14.35;11.73;;;12.20;99.90;;;;;;6183086;23;20470;-76
2021/11/17 07:34:50;;;;;;;17.40;12.73;;;12.20;99.90;;;;;;6183396;23;20001;-76
2021/11/17 07:37:16;;;;;;;15.45;12.05;;;12.30;99.90;;;;;;6182919;23;20503;-76
2021/11/17 07:39:42;;;;;;;13.52;11.88;;;12.30;99.90;;;;;;6183221;23;19997;-77
2021/11/17 07:42:08;;;;;;;14.98;11.50;;;12.40;99.90;;;;;;6182732;23;20023;-78
2021/11/17 07:44:34;;;;;;;14.55;11.23;;;12.40;99.90;;;;;;6183460;23;20024;-77
2021/11/17 07:47:00;;;;;;;15.80;11.05;;;12.40;99.90;;;;;;6182922;23;20075;-76
2021/11/17 07:49:27;;;;;;;18.55;11.20;;;12.50;99.90;;;;;;6183612;23;20008;-77
2021/11/17 07:51:55;;;;;;;14.52;11.85;;;12.50;99.90;;;;;;6182800;23;20005;-76
2021/11/17 07:54:22;;;;;;;14.85;11.32;;;12.50;99.90;;;;;;6181726;23;20494;-76
2021/11/17 07:56:49;;;;;;;15.05;10.77;;;12.60;99.90;;;;;;6182420;23;20009;-74
2021/11/17 07:59:19;;;;;;;15.43;10.85;;;12.60;99.90;;;;;;6183502;23;20031;-76
2021/11/17 08:01:46;;;;;;;16.45;11.48;;;12.60;99.90;;;;;;6182746;23;20009;-76
2021/11/17 08:04:17;;;;;;;19.23;12.43;;;12.60;99.90;;;;;;6183326;23;20076;-76
2021/11/17 08:06:44;;;;;;;19.85;12.10;;;12.60;99.90;;;;;;6182744;23;20400;-76
2021/11/17 08:09:11;;;;;;;14.55;11.30;;;12.60;99.90;;;;;;6197016;23;20012;-76
2021/11/17 08:11:38;;;;;;;15.35;12.00;;;12.60;99.90;;;;;;6212484;23;20005;-76
2021/11/17 08:14:04;;;;;;;14.13;11.57;;;12.70;99.90;;;;;;6213289;23;20001;-76
2021/11/17 08:16:30;;;;;;;16.48;11.02;;;12.70;99.90;;;;;;6211838;23;20063;-76
2021/11/17 08:18:56;;;;;;;15.25;11.27;;;12.80;99.90;;;;;;6213060;23;20000;-75
2021/11/17 08:21:22;;;;;;;13.05;11.15;;;12.90;99.90;;;;;;6212583;23;20428;-77
2021/11/17 08:23:48;;;;;;;15.73;10.88;;;13.00;99.90;;;;;;6212716;23;20051;-76
2021/11/17 08:26:15;;;;;;;14.95;10.73;;;13.10;99.90;;;;;;6212128;23;20043;-76
2021/11/17 08:28:42;;;;;;;17.00;10.77;;;13.20;99.90;;;;;;6212864;23;20001;-76
2021/11/17 08:31:13;;;;;;;15.20;11.88;;;13.30;99.90;;;;;;6211699;23;20004;-75
2021/11/17 08:33:40;;;;;;;14.23;10.93;;;13.30;99.90;;;;;;6210561;23;20072;-75
2021/11/17 08:36:06;;;;;;;15.73;11.52;;;13.40;99.90;;;;;;6210521;23;20013;-75
2021/11/17 08:38:33;;;;;;;15.48;10.85;;;13.40;99.90;;;;;;6211124;23;20079;-77
2021/11/17 08:41:02;;;;;;;18.92;11.77;;;13.40;99.90;;;;;;6212488;23;20005;-76
2021/11/17 08:43:29;;;;;;;15.05;11.32;;;13.50;99.90;;;;;;6212235;23;20001;-76
2021/11/17 08:45:56;;;;;;;12.75;10.52;;;13.60;99.90;;;;;;6212749;23;20493;-75
2021/11/17 08:48:26;;;;;;;14.35;11.05;;;13.70;99.90;;;;;;6214702;23;20028;-75
2021/11/17 08:50:55;;;;;;;14.15;11.85;;;13.80;99.90;;;;;;6214138;23;20470;-76
2021/11/17 08:53:22;;;;;;;21.25;11.35;;;14.00;99.90;;;;;;6214219;23;20369;-76
2021/11/17 08:55:48;;;;;;;12.93;10.65;;;14.10;99.90;;;;;;6187545;23;20180;-76
2021/11/17 08:58:16;;;;;;;15.27;11.43;;;14.10;99.90;;;;;;6187930;23;20005;-76
2021/11/17 09:00:43;;;;;;;16.08;11.27;;;14.10;99.90;;;;;;6214320;23;20440;-77
2021/11/17 09:03:09;;;;;;;15.80;11.38;;;14.20;99.90;;;;;;6214379;23;20000;-76
2021/11/17 09:05:39;;;;;;;16.30;10.80;;;14.30;99.90;;;;;;6214057;23;20008;-76
2021/11/17 09:08:06;;;;;;;18.02;11.23;;;14.40;99.90;;;;;;6214129;23;19997;-76
2021/11/17 09:10:37;;;;;;;20.90;11.77;;;14.60;99.90;;;;;;6186958;23;20332;-76
2021/11/17 09:13:04;;;;;;;13.02;11.00;;;14.90;99.90;;;;;;6187204;23;20336;-77
2021/11/17 09:15:33;;;;;;;14.55;11.25;;;15.00;99.90;;;;;;6213866;23;20096;-77
2021/11/17 09:17:59;;;;;;;14.88;11.45;;;15.10;99.90;;;;;;6185525;23;20009;-76
2021/11/17 09:20:27;;;;;;;16.48;11.48;;;15.20;99.90;;;;;;6185435;23;20473;-74
2021/11/17 09:22:53;;;;;;;15.98;11.82;;;15.20;99.90;;;;;;6186454;23;20047;-78
2021/11/17 09:25:21;;;;;;;15.40;11.10;;;15.20;99.90;;;;;;6186267;23;20003;-75
2021/11/17 09:27:48;;;;;;;15.25;11.68;;;15.10;99.90;;;;;;6213148;23;20317;-75
2021/11/17 09:30:19;;;;;;;12.95;10.85;;;15.10;99.90;;;;;;6213476;23;20007;-75
2021/11/17 09:32:48;;;;;;;13.02;11.55;;;14.90;99.90;;;;;;6214079;23;20084;-75
2021/11/17 09:35:15;;;;;;;15.35;11.90;;;14.80;99.90;;;;;;6141076;23;20294;-74
2021/11/17 09:37:43;;;;;;;16.83;11.43;;;14.70;99.90;;;;;;6177060;23;20500;-74
2021/11/17 09:40:14;;;;;;;16.50;11.57;;;14.70;99.90;;;;;;6153777;23;19997;-74
2021/11/17 09:42:40;;;;;;;13.98;10.90;;;14.70;99.90;;;;;;6152058;23;20260;-74
2021/11/17 09:45:09;;;;;;;16.08;11.88;;;14.70;99.90;;;;;;6152503;23;20052;-74
2021/11/17 09:47:36;;;;;;;15.07;10.85;;;14.70;99.90;;;;;;6153473;23;19997;-74
2021/11/17 09:50:30;;;;;;;16.65;11.40;;;14.80;99.90;;;;;;6153603;23;20099;-74
2021/11/17 09:53:08;;;;;;;17.63;11.65;;;15.00;99.90;;;;;;6153914;23;20002;-74
2021/11/17 09:56:14;;;;;;;14.75;10.68;;;15.20;99.90;;;;;;6153583;23;20080;-75
2021/11/17 09:58:44;;;;;;;15.25;11.50;;;15.60;99.90;;;;;;6153347;23;20012;-75
2021/11/17 10:01:16;;;;;;;17.13;11.75;;;16.00;99.90;;;;;;6152905;23;20016;-75
2021/11/17 10:03:52;;;;;;;17.42;11.15;;;16.40;99.90;;;;;;6174541;23;20401;-74
2021/11/17 10:14:59;;;;;;;13.57;11.38;;;17.10;99.90;;;;;;6152108;23;20010;-74
2021/11/17 10:17:57;;;;;;;15.50;11.00;;;17.10;99.90;;;;;;6152661;23;20009;-76
2021/11/17 10:20:33;;;;;;;14.18;11.43;;;17.20;99.90;;;;;;6176322;23;20386;-75
2021/11/17 10:23:05;;;;;;;12.95;10.75;;;17.20;99.90;;;;;;6151911;23;20009;-74
2021/11/17 10:25:48;;;;;;;13.73;11.37;;;17.30;99.90;;;;;;6151449;23;20419;-74
2021/11/17 10:28:31;;;;;;;13.48;10.82;;;17.40;99.90;;;;;;6153569;23;20256;-74
2021/11/17 10:31:12;;;;;;;19.48;11.18;;;17.50;99.90;;;;;;6153572;23;20008;-74
2021/11/17 10:33:44;;;;;;;13.80;10.75;;;17.50;99.90;;;;;;6153754;23;20008;-74
2021/11/17 10:36:27;;;;;;;14.60;11.15;;;17.40;99.90;;;;;;6119103;23;20025;-74
2021/11/17 10:39:19;;;;;;;12.52;11.07;;;17.40;99.90;;;;;;6153014;23;19997;-75
2021/11/17 10:42:31;;;;;;;12.55;10.98;;;17.50;99.90;;;;;;6138232;23;20014;-75
2021/11/17 10:45:09;;;;;;;12.95;10.73;;;17.50;99.90;;;;;;6086433;23;20041;-74
2021/11/17 10:47:36;;;;;;;18.75;10.82;;;17.40;99.90;;;;;;6152932;23;20002;-74
2021/11/17 10:50:04;;;;;;;17.67;11.15;;;17.30;99.90;;;;;;6153556;23;20012;-73
2021/11/17 10:52:39;;;;;;;16.52;10.85;;;17.30;99.90;;;;;;6153340;23;20024;-74
2021/11/17 10:55:19;;;;;;;18.80;11.25;;;17.30;99.90;;;;;;6152628;23;20002;-75
2021/11/17 10:57:45;;;;;;;12.50;10.65;;;17.20;99.90;;;;;;6153111;23;20487;-74
2021/11/17 11:00:13;;;;;;;16.05;12.07;;;17.30;99.90;;;;;;6149238;23;19997;-73
2021/11/17 11:02:40;;;;;;;14.45;10.77;;;17.20;99.90;;;;;;6151959;23;20329;-75
2021/11/17 11:05:15;;;;;;;13.68;10.98;;;17.20;99.90;;;;;;6152499;23;20005;-75
2021/11/17 11:07:43;;;;;;;19.92;12.02;;;17.10;99.90;;;;;;6152709;23;20002;-76
2021/11/17 11:10:15;;;;;;;14.45;11.05;;;17.20;99.90;;;;;;6151901;23;20061;-73
2021/11/17 11:12:43;;;;;;;12.20;10.43;;;17.30;99.90;;;;;;6152390;23;20429;-75
2021/11/17 11:15:13;;;;;;;18.52;11.65;;;17.40;99.90;;;;;;6152927;23;20005;-75
2021/11/17 11:18:02;;;;;;;16.10;11.13;;;17.60;99.90;;;;;;6151357;23;20013;-75
2021/11/17 11:20:31;;;;;;;13.07;10.57;;;17.90;99.90;;;;;;6150715;23;20037;-75
2021/11/17 11:23:03;;;;;;;14.95;11.02;;;18.30;99.90;;;;;;6150717;23;20013;-75
2021/11/17 11:25:43;;;;;;;13.75;9.98;;;18.60;99.90;;;;;;6152494;23;20001;-74
2021/11/17 11:28:23;;;;;;;12.25;10.35;;;18.90;99.90;;;;;;6152516;23;20008;-74
2021/11/17 11:31:09;;;;;;;18.48;10.55;;;19.40;99.90;;;;;;6152859;23;20017;-73
2021/11/17 11:33:49;;;;;;;15.82;9.70;;;19.90;99.90;;;;;;6152685;23;20056;-74
2021/11/17 11:36:14;;;;;;;13.98;10.05;;;20.40;99.30;;;;;;6137447;23;20021;-74
2021/11/17 11:38:57;;;;;;;13.90;10.00;;;20.80;98.00;;;;;;6149606;23;20379;-73
2021/11/17 11:41:28;;;;;;;18.27;10.98;;;21.20;96.60;;;;;;6152216;23;20012;-73
2021/11/17 11:47:08;;;;;;;18.00;9.85;;;21.70;94.60;;;;;;6152217;23;20009;-72
2021/11/17 11:49:38;;;;;;;13.27;10.00;;;21.90;94.00;;;;;;6150628;23;20033;-73
2021/11/17 11:52:22;;;;;;;11.70;9.52;;;21.90;93.90;;;;;;6149346;23;19998;-73
2021/11/17 11:54:51;;;;;;;13.45;9.18;;;22.00;93.50;;;;;;6149644;23;20013;-74
2021/11/17 11:57:32;;;;;;;12.95;8.90;;;22.30;92.70;;;;;;6148727;23;20049;-74
2021/11/17 12:00:25;;;;;;;12.63;9.48;;;22.60;91.70;;;;;;6149401;23;20465;-72
2021/11/17 12:03:02;;;;;;;16.70;9.77;;;22.60;90.90;;;;;;6147030;23;20021;-73
2021/11/17 12:05:33;;;;;;;11.90;8.93;;;22.20;91.00;;;;;;6149245;23;20006;-73
2021/11/17 12:08:21;;;;;;;12.30;8.87;;;21.60;92.20;;;;;;6147830;23;20366;-78
2021/11/17 12:11:06;;;;;;;15.65;9.73;;;20.90;92.90;;;;;;6148947;23;20124;-81
2021/11/17 12:13:36;;;;;;;15.10;10.00;;;20.40;94.00;;;;;;6151203;23;20005;-80
2021/11/17 12:16:13;;;;;;;15.50;10.77;;;20.00;95.00;;;;;;6151217;23;20447;-78
2021/11/17 12:19:02;;;;;;;17.70;10.95;;;19.70;95.40;;;;;;6151513;23;20137;-80
2021/11/17 12:21:30;;;;;;;14.23;10.98;;;19.40;96.50;;;;;;6150938;23;20036;-78
2021/11/17 12:24:28;;;;;;;17.02;14.38;;;19.60;96.20;;;;;;6160232;23;20005;-81
2021/11/17 12:26:59;;;;;;;15.70;12.25;;;19.50;96.30;;;;;;6163294;23;20009;-81
2021/11/17 12:29:29;;;;;;;20.02;10.63;;;19.40;95.90;;;;;;6160063;23;20008;-77
2021/11/17 12:32:21;;;;;;;16.75;10.77;;;19.20;96.40;;;;;;6161298;23;20064;-83
2021/11/17 12:34:55;;;;;;;20.08;11.77;;;19.00;96.80;;;;;;6142164;23;20015;-77
2021/11/17 12:37:23;;;;;;;12.68;10.20;;;18.90;97.60;;;;;;6166281;23;20041;-80
2021/11/17 12:40:01;;;;;;;15.60;11.35;;;18.70;97.70;;;;;;6162458;23;20033;-82
2021/11/17 12:42:47;;;;;;;14.93;10.45;;;18.50;98.70;;;;;;6150702;23;20005;-79
2021/11/17 12:45:33;;;;;;;20.23;13.23;;;18.30;98.90;;;;;;6175388;23;20714;-83
2021/11/17 12:48:37;;;;;;;15.00;11.82;;;18.20;99.90;;;;;;6153035;23;20032;-80
2021/11/17 12:51:12;;;;;;;12.52;11.15;;;18.00;99.90;;;;;;6105445;23;20016;-73
2021/11/17 12:54:04;;;;;;;14.43;10.82;;;17.90;99.90;;;;;;6151635;23;20037;-73
2021/11/17 12:56:55;;;;;;;13.43;11.77;;;17.80;99.90;;;;;;6151451;23;20071;-87
2021/11/17 12:59:33;;;;;;;14.13;11.30;;;17.60;99.90;;;;;;6142065;23;20032;-77
2021/11/17 13:02:20;;;;;;;17.17;10.82;;;17.50;99.90;;;;;;6152051;23;20001;-78
2021/11/17 13:04:48;;;;;;;16.35;11.23;;;17.40;99.90;;;;;;6159866;23;20444;-79
2021/11/17 13:07:42;;;;;;;20.70;12.18;;;17.40;99.90;;;;;;6150799;23;20384;-76
2021/11/17 13:10:09;;;;;;;16.95;11.70;;;17.40;99.90;;;;;;6150563;23;20027;-77
2021/11/17 13:12:38;;;;;;;17.88;12.52;;;17.50;99.90;;;;;;6151783;23;20005;-77
2021/11/17 13:15:12;;;;;;;21.75;14.25;;;17.50;99.90;;;;;;6151595;23;20445;-81
2021/11/17 13:17:42;;;;;;;16.50;11.75;;;17.50;99.90;;;;;;6158563;23;20521;-75
2021/11/17 13:20:13;;;;;;;22.98;12.23;;;17.50;99.90;;;;;;6154517;23;20005;-75
2021/11/17 13:23:16;;;;;;;15.67;12.50;;;17.50;99.90;;;;;;6154583;23;20043;-75
2021/11/17 13:25:55;;;;;;;18.30;12.82;;;17.50;99.90;;;;;;6151006;23;20009;-76
2021/11/17 13:28:34;;;;;;;19.13;11.35;;;17.50;99.90;;;;;;6153022;23;20082;-75
2021/11/17 13:31:32;;;;;;;16.15;11.20;;;17.60;99.90;;;;;;6151304;23;20025;-75
2021/11/17 13:34:27;;;;;;;16.10;12.05;;;17.80;99.90;;;;;;6151116;23;20002;-74
2021/11/17 13:36:54;;;;;;;12.63;10.45;;;17.90;99.90;;;;;;6150766;23;20037;-73
2021/11/17 13:39:25;;;;;;;17.48;11.35;;;18.00;99.90;;;;;;6151214;23;20569;-73
2021/11/17 13:41:54;;;;;;;17.27;11.15;;;18.00;99.90;;;;;;6149051;23;20318;-75
2021/11/17 13:44:24;;;;;;;13.15;11.43;;;18.00;99.90;;;;;;6151736;23;20336;-73
2021/11/17 13:47:12;;;;;;;18.50;11.90;;;18.10;99.90;;;;;;6173772;23;20009;-77
2021/11/17 13:49:44;;;;;;;12.80;10.65;;;18.00;99.90;;;;;;6151506;23;20148;-77
2021/11/17 13:52:13;;;;;;;20.88;11.77;;;18.00;99.90;;;;;;6151087;23;20078;-75
2021/11/17 13:54:39;;;;;;;20.85;11.13;;;17.90;99.90;;;;;;6174131;23;20530;-77
2021/11/17 13:57:08;;;;;;;16.42;11.05;;;17.80;99.90;;;;;;6150750;23;20112;-77
2021/11/17 13:59:34;;;;;;;13.88;11.70;;;17.80;99.90;;;;;;6151083;23;20005;-74
2021/11/17 14:02:00;;;;;;;13.02;11.52;;;17.90;99.90;;;;;;6149034;23;20093;-73
2021/11/17 14:04:27;;;;;;;15.30;11.73;;;17.90;99.90;;;;;;6151851;23;19989;-74
2021/11/17 14:06:53;;;;;;;14.88;11.40;;;17.80;99.90;;;;;;6151199;23;20009;-73
2021/11/17 14:09:19;;;;;;;20.10;11.77;;;17.70;99.90;;;;;;6151363;23;20005;-74
2021/11/17 14:11:46;;;;;;;14.23;11.73;;;17.70;99.90;;;;;;6174001;23;20018;-73
2021/11/17 14:14:11;;;;;;;15.80;11.90;;;17.60;99.90;;;;;;6151576;23;20001;-74
2021/11/17 14:16:37;;;;;;;15.70;11.82;;;17.50;99.90;;;;;;6150870;23;20025;-74
2021/11/17 14:19:03;;;;;;;20.90;12.43;;;17.50;99.90;;;;;;6151505;23;20010;-74
2021/11/17 14:21:30;;;;;;;18.35;12.30;;;17.50;99.90;;;;;;6174340;23;20014;-74
2021/11/17 14:23:57;;;;;;;15.82;12.15;;;17.40;99.90;;;;;;6153069;23;20008;-73
2021/11/17 14:26:23;;;;;;;21.92;14.00;;;17.30;99.90;;;;;;6153506;23;20044;-73
2021/11/17 14:28:53;;;;;;;18.15;13.52;;;17.00;99.90;;;;;;6151657;23;20339;-73
2021/11/17 14:31:35;;;;;;;17.70;13.30;;;16.80;99.90;;;;;;6149801;23;20010;-73
2021/11/17 14:34:02;;;;;;;20.35;13.40;;;16.60;99.90;;;;;;6152287;23;20024;-74
2021/11/17 14:36:34;;;;;;;21.05;14.05;;;16.40;99.90;;;;;;6174009;23;20013;-71
2021/11/17 14:39:03;;;;;;;20.85;13.68;;;16.30;99.90;;;;;;6152049;23;20000;-72
2021/11/17 14:41:29;;;;;;;18.50;13.43;;;16.10;99.90;;;;;;6151563;23;20005;-72
2021/11/17 14:43:55;;;;;;;17.40;13.63;;;15.90;99.90;;;;;;6151635;23;20005;-72
2021/11/17 14:46:21;;;;;;;21.02;14.80;;;15.80;99.90;;;;;;6151417;23;20060;-73
2021/11/17 14:48:46;;;;;;;17.67;13.48;;;15.80;99.90;;;;;;6151681;23;19994;-72
2021/11/17 14:51:13;;;;;;;19.33;14.38;;;15.70;99.90;;;;;;6151918;23;20032;-73
2021/11/17 14:53:45;;;;;;;21.25;15.43;;;15.70;99.90;;;;;;6153422;23;20283;-72
2021/11/17 14:56:13;;;;;;;22.92;14.35;;;15.70;99.90;;;;;;6153368;23;20006;-72
2021/11/17 14:58:39;;;;;;;18.25;14.18;;;15.60;99.90;;;;;;6153667;23;19998;-74
2021/11/17 15:01:10;;;;;;;20.75;14.40;;;15.60;99.90;;;;;;6153483;23;19998;-73
2021/11/17 15:03:36;;;;;;;22.40;15.43;;;15.50;99.90;;;;;;6153629;23;20009;-73
2021/11/17 15:06:02;;;;;;;26.70;15.18;;;15.50;99.90;;;;;;6153542;23;20010;-73
2021/11/17 15:08:28;;;;;;;19.45;14.65;;;15.40;99.90;;;;;;6152891;23;20012;-72
2021/11/17 15:10:54;;;;;;;21.35;15.50;;;15.30;99.90;;;;;;6153278;23;20060;-73
2021/11/17 15:13:19;;;;;;;18.15;14.15;;;15.20;99.90;;;;;;6153291;23;20349;-73
2021/11/17 15:15:48;;;;;;;20.67;14.80;;;15.10;99.90;;;;;;6153457;23;20045;-73
2021/11/17 15:18:19;;;;;;;23.75;14.80;;;15.00;99.90;;;;;;6153698;23;20076;-73
2021/11/17 15:20:45;;;;;;;21.45;15.27;;;15.00;99.90;;;;;;6153417;23;20462;-73
2021/11/17 15:23:12;;;;;;;24.70;15.18;;;14.90;99.90;;;;;;6153598;23;20030;-76
2021/11/17 15:25:40;;;;;;;22.65;15.38;;;14.80;99.90;;;;;;6151437;23;20025;-76
2021/11/17 15:28:24;;;;;;;21.60;14.55;;;14.80;99.90;;;;;;6159486;23;20385;-79
2021/11/17 15:30:54;;;;;;;22.67;14.90;;;14.80;99.90;;;;;;6153263;23;20009;-76
2021/11/17 15:33:19;;;;;;;23.95;15.80;;;14.80;99.90;;;;;;6176105;23;20340;-74
2021/11/17 15:35:46;;;;;;;22.55;16.02;;;14.80;99.90;;;;;;6145820;23;20018;-77
2021/11/17 15:38:12;;;;;;;26.08;16.40;;;14.70;99.90;;;;;;6153191;23;20448;-75
2021/11/17 15:40:45;;;;;;;20.33;15.00;;;14.70;99.90;;;;;;6153004;23;20013;-76
2021/11/17 15:43:11;;;;;;;21.50;16.05;;;14.60;99.90;;;;;;6151538;23;20005;-75